createdAt,value
2022-11-24T00:04:49.509Z,47.43
2022-11-24T00:09:51.921Z,62.10
2022-11-24T00:14:54.357Z,51.90
2022-11-24T00:19:56.746Z,43.40
2022-11-24T00:24:59.230Z,47.90
2022-11-24T00:30:01.678Z,62.57
2022-11-24T00:35:04.466Z,44.93
2022-11-24T00:40:07.659Z,58.07
2022-11-24T00:45:13.766Z,47.10
2022-11-24T00:50:16.947Z,58.50
2022-11-24T00:55:19.333Z,55.70
2022-11-24T01:00:21.827Z,45.33
2022-11-24T01:05:24.221Z,41.10
2022-11-24T01:10:26.681Z,53.27
2022-11-24T01:15:30.301Z,48.83
2022-11-24T01:20:32.835Z,53.83
2022-11-24T01:25:35.254Z,44.77
2022-11-24T01:30:37.697Z,40.70
2022-11-24T01:35:40.095Z,48.47
2022-11-24T01:40:42.469Z,48.13
2022-11-24T01:45:45.849Z,47.03
2022-11-24T01:50:53.922Z,45.60
2022-11-24T01:55:56.424Z,55.07
2022-11-24T02:00:59.351Z,55.50
2022-11-24T02:06:19.274Z,52.27
2022-11-24T02:11:24.143Z,68.03
2022-11-24T02:16:26.970Z,70.43
2022-11-24T02:21:29.501Z,65.13
2022-11-24T02:26:48.069Z,56.77
2022-11-24T02:31:56.949Z,58.73
2022-11-24T02:36:59.395Z,65.77
2022-11-24T02:42:13.730Z,47.27
2022-11-24T02:47:16.180Z,40.80
2022-11-24T02:52:18.757Z,37.13
2022-11-24T02:57:23.294Z,59.87
2022-11-24T03:02:25.977Z,57.57
2022-11-24T03:07:28.509Z,61.10
2022-11-24T03:12:30.981Z,47.17
2022-11-24T03:17:33.426Z,57.67
2022-11-24T03:22:36.939Z,59.40
2022-11-24T03:27:39.364Z,40.73
2022-11-24T03:32:42.101Z,63.67
2022-11-24T03:37:44.558Z,57.33
2022-11-24T03:42:46.902Z,59.83
2022-11-24T03:47:52.425Z,71.37
2022-11-24T03:52:54.815Z,68.87
2022-11-24T03:57:57.280Z,68.27
2022-11-24T04:02:59.649Z,43.73
2022-11-24T04:08:03.824Z,56.40
2022-11-24T04:13:15.080Z,58.83
2022-11-24T04:18:18.160Z,56.90
2022-11-24T04:23:20.746Z,43.37
2022-11-24T04:28:23.209Z,61.63
2022-11-24T04:33:25.638Z,65.73
2022-11-24T04:39:25.422Z,69.73
2022-11-24T04:43:51.139Z,50.00
2022-11-24T04:48:53.488Z,56.30
2022-11-24T04:53:55.850Z,40.73
2022-11-24T04:58:58.355Z,69.83
2022-11-24T05:04:00.821Z,57.93
2022-11-24T05:09:04.266Z,58.37
2022-11-24T05:14:06.720Z,72.50
2022-11-24T05:19:09.351Z,67.53
2022-11-24T05:24:11.890Z,72.30
2022-11-24T05:29:14.375Z,62.80
2022-11-24T05:34:18.348Z,37.43
2022-11-24T05:39:21.630Z,50.50
2022-11-24T05:44:24.120Z,44.70
2022-11-24T05:49:26.490Z,53.70
2022-11-24T05:54:28.924Z,69.57
2022-11-24T05:59:31.339Z,57.67
2022-11-24T06:04:34.142Z,68.20
2022-11-24T06:09:38.605Z,47.17
2022-11-24T06:14:41.508Z,47.30
2022-11-24T06:19:47.940Z,69.70
2022-11-24T06:24:51.244Z,75.30
2022-11-24T06:29:53.710Z,81.00
2022-11-24T06:34:56.114Z,71.27
2022-11-24T06:39:58.568Z,51.70
2022-11-24T06:45:00.997Z,56.83
2022-11-24T06:50:03.688Z,53.90
2022-11-24T06:55:06.985Z,47.67
2022-11-24T07:00:10.819Z,45.70
2022-11-24T07:05:13.292Z,62.77
2022-11-24T07:10:16.090Z,53.47
2022-11-24T07:15:18.512Z,50.90
2022-11-24T07:20:20.888Z,44.93
2022-11-24T07:25:24.213Z,54.43
2022-11-24T07:30:28.489Z,43.67
2022-11-24T07:35:31.003Z,51.40
2022-11-24T07:40:33.453Z,52.23
2022-11-24T07:45:35.984Z,48.43
2022-11-24T07:50:38.482Z,49.17
2022-11-24T07:55:41.166Z,47.10
2022-11-24T08:00:43.617Z,48.70
2022-11-24T08:11:25.852Z,61.13
2022-11-24T08:16:28.318Z,112.23
2022-11-24T08:21:30.806Z,60.77
2022-11-24T08:26:33.231Z,74.53
2022-11-24T08:31:38.175Z,80.47
2022-11-24T08:36:40.544Z,51.87
2022-11-24T08:41:43.017Z,70.80
2022-11-24T08:46:45.443Z,79.30
2022-11-24T08:51:48.653Z,77.63
2022-11-24T08:56:51.080Z,48.50
2022-11-24T09:01:53.625Z,51.47
2022-11-24T09:06:56.102Z,28.53
2022-11-24T09:11:58.473Z,51.07
2022-11-24T09:17:00.938Z,88.40
2022-11-24T09:22:03.796Z,69.57
2022-11-24T09:27:06.213Z,80.40
2022-11-24T09:32:08.745Z,43.87
2022-11-24T09:37:11.227Z,68.43
2022-11-24T09:42:23.993Z,54.80
2022-11-24T09:47:34.594Z,57.43
2022-11-24T09:53:03.764Z,59.33
2022-11-24T09:58:43.628Z,54.73
2022-11-24T10:03:49.615Z,92.07
2022-11-24T10:09:03.254Z,51.70
2022-11-24T10:14:14.372Z,87.70
2022-11-24T10:19:52.532Z,92.40
2022-11-24T10:25:34.590Z,90.33
2022-11-24T10:30:37.956Z,98.33
2022-11-24T10:35:55.650Z,64.60
2022-11-24T10:41:03.054Z,83.43
2022-11-24T10:46:21.837Z,73.80
2022-11-24T10:51:33.590Z,87.80
2022-11-24T10:56:44.652Z,82.67
2022-11-24T11:01:47.277Z,76.30
2022-11-24T11:06:50.029Z,60.23
2022-11-24T11:11:54.061Z,70.10
2022-11-24T11:16:59.965Z,51.50
2022-11-24T11:22:15.721Z,57.10
2022-11-24T11:27:22.313Z,79.77
2022-11-24T11:37:52.579Z,93.13
2022-11-24T11:43:03.262Z,92.50
2022-11-24T11:48:37.007Z,66.07
2022-11-24T11:54:03.794Z,81.33
2022-11-24T11:59:29.638Z,88.17
2022-11-24T12:04:52.567Z,92.20
2022-11-24T12:10:16.347Z,66.63
2022-11-24T12:15:45.231Z,71.07
2022-11-24T12:21:26.037Z,113.50
2022-11-24T12:26:59.922Z,104.80
2022-11-24T12:32:32.918Z,84.93
2022-11-24T12:38:00.263Z,120.77
2022-11-24T12:43:20.059Z,106.83
2022-11-24T12:48:47.116Z,109.37
2022-11-24T12:53:52.882Z,119.57
2022-11-24T12:59:03.067Z,106.97
2022-11-24T13:04:15.997Z,105.23
2022-11-24T13:09:18.986Z,141.03
2022-11-24T13:14:43.659Z,129.10
2022-11-24T13:19:47.010Z,130.07
2022-11-24T13:25:16.356Z,111.67
2022-11-24T13:30:33.980Z,108.70
2022-11-24T13:35:36.899Z,134.93
2022-11-24T13:40:54.376Z,91.73
2022-11-24T13:46:04.721Z,86.43
2022-11-24T13:51:14.559Z,114.93
2022-11-24T13:56:16.875Z,117.53
2022-11-24T14:01:26.668Z,99.30
2022-11-24T14:06:38.159Z,126.87
2022-11-24T14:11:41.296Z,124.60
2022-11-24T14:16:43.721Z,103.07
2022-11-24T14:21:46.562Z,110.87
2022-11-24T14:26:49.449Z,151.50
2022-11-24T14:31:57.461Z,152.23
2022-11-24T14:37:00.889Z,130.13
2022-11-24T14:42:27.580Z,117.70
2022-11-24T14:47:32.756Z,121.00
2022-11-24T14:52:36.026Z,111.17
2022-11-24T14:57:40.436Z,107.77
2022-11-24T15:02:48.258Z,95.40
2022-11-24T15:08:00.687Z,140.07
2022-11-24T15:13:07.214Z,94.63
2022-11-24T15:18:32.556Z,111.17
2022-11-24T15:23:36.319Z,106.20
2022-11-24T15:28:38.781Z,103.43
2022-11-24T15:33:42.365Z,107.27
2022-11-24T15:38:44.737Z,108.23
2022-11-24T15:43:47.399Z,112.33
2022-11-24T15:48:49.883Z,92.43
2022-11-24T15:54:00.363Z,105.27
2022-11-24T15:59:03.842Z,106.17
2022-11-24T16:04:06.341Z,117.27
2022-11-24T16:09:14.673Z,99.20
2022-11-24T16:14:17.245Z,100.83
2022-11-24T16:19:19.770Z,80.97
2022-11-24T16:24:22.238Z,126.37
2022-11-24T16:29:24.783Z,114.00
2022-11-24T16:34:27.245Z,114.23
2022-11-24T16:39:29.714Z,112.40
2022-11-24T16:44:32.312Z,111.27
2022-11-24T16:49:35.214Z,94.63
2022-11-24T16:54:37.688Z,90.10
2022-11-24T16:59:40.291Z,99.07
2022-11-24T17:04:42.709Z,98.90
2022-11-24T17:09:45.168Z,114.13
2022-11-24T17:15:09.462Z,153.73
2022-11-24T17:20:10.526Z,102.87
2022-11-24T17:25:12.949Z,107.63
2022-11-24T17:30:17.055Z,109.40
2022-11-24T17:35:19.537Z,148.03
2022-11-24T17:40:29.648Z,155.83
2022-11-24T17:45:32.758Z,139.17
2022-11-24T17:50:35.307Z,134.23
2022-11-24T17:55:38.061Z,112.93
2022-11-24T18:00:40.514Z,113.70
2022-11-24T18:05:42.999Z,88.77
2022-11-24T18:10:45.512Z,103.83
2022-11-24T18:15:47.965Z,100.03
2022-11-24T18:20:57.832Z,79.17
2022-11-24T18:26:02.685Z,94.50
2022-11-24T18:31:08.198Z,98.97
2022-11-24T18:36:14.850Z,99.57
2022-11-24T18:41:17.569Z,123.07
2022-11-24T18:46:20.259Z,124.80
2022-11-24T18:51:23.627Z,145.13
2022-11-24T18:56:27.045Z,102.97
2022-11-24T19:01:29.911Z,144.60
2022-11-24T19:06:35.613Z,135.43
2022-11-24T19:11:40.277Z,132.77
2022-11-24T19:16:44.224Z,132.37
2022-11-24T19:21:46.714Z,135.47
2022-11-24T19:26:49.157Z,136.87
2022-11-24T19:31:53.650Z,135.03
2022-11-24T19:36:56.181Z,126.57
2022-11-24T19:41:58.534Z,126.43
2022-11-24T19:47:00.970Z,131.00
2022-11-24T19:52:03.462Z,135.07
2022-11-24T19:57:05.902Z,132.70
2022-11-24T20:02:09.286Z,126.43
2022-11-24T20:07:11.778Z,128.57
2022-11-24T20:12:14.951Z,107.73
2022-11-24T20:17:17.516Z,115.80
2022-11-24T20:22:19.851Z,125.73
2022-11-24T20:27:22.219Z,133.63
2022-11-24T20:32:24.618Z,140.87
2022-11-24T20:37:28.605Z,142.67
2022-11-24T20:42:32.097Z,174.53
2022-11-24T20:47:34.540Z,170.80
2022-11-24T20:52:36.932Z,151.70
2022-11-24T20:57:39.931Z,134.20
2022-11-24T21:02:42.530Z,112.20
2022-11-24T21:07:45.038Z,115.13
2022-11-24T21:12:47.473Z,134.23
2022-11-24T21:17:49.807Z,128.57
2022-11-24T21:22:52.229Z,165.33
2022-11-24T21:27:54.628Z,114.40
2022-11-24T21:32:57.117Z,131.73
2022-11-24T21:37:59.567Z,142.53
2022-11-24T21:43:02.006Z,132.40
2022-11-24T21:48:04.618Z,136.43
2022-11-24T21:53:09.523Z,110.63
2022-11-24T21:58:11.922Z,159.03
2022-11-24T22:03:14.343Z,156.13
2022-11-24T22:08:16.793Z,171.10
2022-11-24T22:13:19.975Z,93.43
2022-11-24T22:18:22.444Z,141.27
2022-11-24T22:23:25.270Z,152.80
2022-11-24T22:28:31.156Z,161.60
2022-11-24T22:33:34.019Z,171.73
2022-11-24T22:38:36.960Z,165.63
2022-11-24T22:43:40.431Z,127.33
2022-11-24T22:48:43.875Z,154.83
2022-11-24T22:53:56.168Z,121.00
2022-11-24T22:59:00.094Z,107.70
2022-11-24T23:04:03.902Z,106.87
2022-11-24T23:09:07.264Z,97.40
2022-11-24T23:14:14.771Z,96.07
2022-11-24T23:19:17.870Z,113.03
2022-11-24T23:24:20.291Z,103.13
2022-11-24T23:29:22.656Z,97.57
2022-11-24T23:34:25.089Z,130.27
2022-11-24T23:39:27.518Z,104.93
2022-11-24T23:44:29.894Z,108.00
2022-11-24T23:49:32.717Z,99.83
2022-11-24T23:54:35.326Z,104.23
2022-11-24T23:59:37.983Z,90.47
